createdAt,value
2022-12-18T00:01:35.823Z,34.49
2022-12-18T00:04:06.254Z,34.74
2022-12-18T00:06:39.218Z,34.03
2022-12-18T00:09:11.369Z,34.59
2022-12-18T00:11:43.416Z,32.88
2022-12-18T00:14:12.053Z,32.62
2022-12-18T00:16:39.113Z,33.43
2022-12-18T00:19:06.453Z,32.63
2022-12-18T00:21:39.332Z,33.31
2022-12-18T00:24:06.822Z,32.19
2022-12-18T00:26:39.904Z,32.26
2022-12-18T00:29:15.849Z,33.25
2022-12-18T00:31:43.438Z,33.40
2022-12-18T00:34:30.122Z,32.59
2022-12-18T00:36:59.862Z,32.79
2022-12-18T00:39:27.661Z,32.84
2022-12-18T00:41:54.835Z,32.61
2022-12-18T00:44:26.654Z,32.45
2022-12-18T00:46:56.427Z,33.07
2022-12-18T00:49:23.399Z,32.94
2022-12-18T00:51:51.069Z,31.39
2022-12-18T00:54:17.869Z,33.14
2022-12-18T00:56:49.460Z,32.16
2022-12-18T00:59:18.735Z,32.27
2022-12-18T01:01:46.121Z,32.51
2022-12-18T01:04:18.161Z,31.14
2022-12-18T01:06:45.199Z,31.85
2022-12-18T01:09:14.874Z,31.21
2022-12-18T01:11:42.623Z,31.34
2022-12-18T01:14:11.159Z,31.86
2022-12-18T01:16:40.041Z,31.74
2022-12-18T01:19:07.511Z,30.63
2022-12-18T01:21:34.695Z,30.51
2022-12-18T01:24:04.463Z,31.65
2022-12-18T01:26:31.455Z,30.94
2022-12-18T01:29:01.199Z,30.89
2022-12-18T01:31:32.046Z,31.54
2022-12-18T01:34:01.095Z,31.88
2022-12-18T01:36:31.313Z,32.27
2022-12-18T01:38:58.456Z,32.30
2022-12-18T01:41:27.960Z,31.32
2022-12-18T01:44:00.782Z,32.26
2022-12-18T01:46:33.582Z,33.26
2022-12-18T01:49:01.532Z,32.18
2022-12-18T01:51:29.754Z,32.45
2022-12-18T01:53:56.946Z,33.06
2022-12-18T01:56:29.988Z,32.81
2022-12-18T01:59:05.719Z,32.83
2022-12-18T02:01:33.540Z,32.91
2022-12-18T02:04:23.237Z,32.76
2022-12-18T02:07:12.805Z,32.44
2022-12-18T02:10:03.199Z,33.96
2022-12-18T02:13:05.341Z,32.92
2022-12-18T02:16:09.494Z,33.29
2022-12-18T02:18:42.009Z,33.29
2022-12-18T02:21:33.026Z,33.78
2022-12-18T02:24:53.465Z,33.67
2022-12-18T02:27:25.868Z,34.42
2022-12-18T02:29:58.537Z,34.19
2022-12-18T02:32:33.609Z,33.44
2022-12-18T02:35:07.346Z,33.54
2022-12-18T02:37:37.034Z,33.98
2022-12-18T02:40:10.334Z,33.14
2022-12-18T02:42:42.410Z,33.67
2022-12-18T02:45:09.557Z,33.62
2022-12-18T02:47:43.445Z,33.81
2022-12-18T02:50:39.082Z,34.27
2022-12-18T02:53:57.001Z,33.44
2022-12-18T02:56:53.215Z,34.51
2022-12-18T02:59:38.609Z,32.48
2022-12-18T03:02:34.767Z,34.10
2022-12-18T03:05:15.879Z,33.12
2022-12-18T03:08:02.604Z,33.83
2022-12-18T03:10:30.925Z,33.57
2022-12-18T03:13:06.108Z,32.25
2022-12-18T03:15:46.697Z,33.24
2022-12-18T03:18:22.588Z,33.03
2022-12-18T03:20:49.757Z,32.81
2022-12-18T03:23:25.968Z,33.20
2022-12-18T03:25:56.477Z,33.21
2022-12-18T03:28:28.686Z,33.79
2022-12-18T03:30:58.543Z,34.23
2022-12-18T03:33:35.617Z,34.15
2022-12-18T03:36:06.546Z,32.67
2022-12-18T03:38:34.327Z,32.21
2022-12-18T03:41:30.577Z,32.94
2022-12-18T03:44:23.269Z,32.54
2022-12-18T03:47:22.542Z,32.14
2022-12-18T03:50:09.598Z,33.74
2022-12-18T03:53:24.207Z,33.47
2022-12-18T03:55:53.553Z,34.65
2022-12-18T03:58:26.431Z,33.88
2022-12-18T04:00:57.270Z,33.84
2022-12-18T04:03:28.064Z,34.90
2022-12-18T04:05:55.778Z,34.18
2022-12-18T04:08:28.890Z,32.83
2022-12-18T04:10:55.913Z,32.95
2022-12-18T04:13:44.789Z,32.74
2022-12-18T04:16:31.466Z,33.06
2022-12-18T04:19:00.939Z,33.91
2022-12-18T04:21:28.007Z,33.72
2022-12-18T04:24:00.892Z,33.24
2022-12-18T04:26:27.972Z,31.91
2022-12-18T04:28:57.561Z,33.07
2022-12-18T04:31:24.589Z,31.83
2022-12-18T04:33:51.565Z,32.75
2022-12-18T04:36:23.622Z,33.48
2022-12-18T04:38:53.449Z,32.50
2022-12-18T04:41:20.429Z,33.39
2022-12-18T04:43:52.246Z,32.75
2022-12-18T04:46:21.910Z,33.01
2022-12-18T04:48:49.287Z,34.69
2022-12-18T04:51:23.303Z,35.27
2022-12-18T04:53:53.208Z,35.10
2022-12-18T04:56:22.850Z,35.07
2022-12-18T04:58:52.684Z,35.08
2022-12-18T05:01:20.040Z,33.82
2022-12-18T05:03:49.865Z,34.80
2022-12-18T05:06:18.474Z,34.57
2022-12-18T05:08:50.414Z,35.51
2022-12-18T05:11:17.525Z,34.64
2022-12-18T05:13:44.952Z,35.18
2022-12-18T05:16:17.895Z,36.34
2022-12-18T05:18:44.930Z,35.88
2022-12-18T05:21:11.879Z,36.01
2022-12-18T05:23:41.381Z,35.23
2022-12-18T05:26:17.411Z,34.58
2022-12-18T05:28:50.082Z,33.70
2022-12-18T05:31:19.815Z,33.90
2022-12-18T05:33:52.659Z,34.47
2022-12-18T05:36:19.639Z,33.64
2022-12-18T05:38:49.414Z,34.71
2022-12-18T05:41:17.182Z,34.10
2022-12-18T05:43:50.157Z,32.87
2022-12-18T05:46:20.081Z,33.61
2022-12-18T05:48:47.339Z,34.78
2022-12-18T05:51:19.717Z,35.12
2022-12-18T05:53:48.801Z,34.02
2022-12-18T05:56:20.006Z,32.86
2022-12-18T05:58:53.741Z,33.44
2022-12-18T06:01:22.790Z,33.01
2022-12-18T06:03:49.914Z,34.26
2022-12-18T06:06:29.548Z,33.59
2022-12-18T06:08:57.780Z,33.62
2022-12-18T06:11:26.347Z,33.85
2022-12-18T06:13:59.030Z,34.58
2022-12-18T06:16:28.385Z,34.87
2022-12-18T06:19:01.970Z,33.32
2022-12-18T06:21:34.778Z,33.67
2022-12-18T06:24:03.165Z,34.18
2022-12-18T06:26:30.152Z,34.79
2022-12-18T06:29:03.022Z,36.20
2022-12-18T06:31:30.119Z,34.31
2022-12-18T06:33:57.879Z,35.93
2022-12-18T06:36:25.322Z,34.82
2022-12-18T06:38:52.240Z,33.67
2022-12-18T06:41:21.062Z,34.29
2022-12-18T06:43:49.359Z,34.09
2022-12-18T06:49:02.878Z,32.90
2022-12-18T06:51:29.912Z,32.97
2022-12-18T06:53:56.710Z,32.52
2022-12-18T06:56:23.669Z,31.93
2022-12-18T06:58:56.430Z,32.66
2022-12-18T07:01:24.298Z,34.37
2022-12-18T07:04:10.940Z,34.81
2022-12-18T07:06:39.948Z,33.62
2022-12-18T07:09:06.876Z,34.16
2022-12-18T07:11:34.343Z,33.39
2022-12-18T07:14:07.462Z,32.99
2022-12-18T07:16:39.368Z,31.96
2022-12-18T07:19:08.737Z,32.26
2022-12-18T07:21:35.450Z,30.15
2022-12-18T07:24:03.618Z,29.80
2022-12-18T07:26:30.430Z,32.05
2022-12-18T07:28:58.664Z,30.88
2022-12-18T07:31:25.817Z,31.15
2022-12-18T07:33:53.103Z,28.40
2022-12-18T07:36:20.200Z,30.00
2022-12-18T07:38:50.565Z,28.15
2022-12-18T07:41:18.828Z,27.92
2022-12-18T07:44:01.821Z,28.16
2022-12-18T07:46:28.800Z,27.98
2022-12-18T07:48:55.866Z,28.74
2022-12-18T07:51:23.683Z,26.35
2022-12-18T07:53:52.097Z,26.95
2022-12-18T07:56:28.732Z,27.38
2022-12-18T07:58:57.113Z,26.79
2022-12-18T08:01:24.080Z,26.13
2022-12-18T08:03:52.336Z,26.42
2022-12-18T08:06:23.933Z,26.66
2022-12-18T08:08:55.014Z,25.56
2022-12-18T08:11:22.645Z,26.50
2022-12-18T08:13:50.469Z,27.60
2022-12-18T08:16:17.466Z,27.20
2022-12-18T08:18:44.661Z,27.02
2022-12-18T08:21:21.459Z,26.27
2022-12-18T08:23:48.719Z,26.92
2022-12-18T08:26:16.170Z,27.22
2022-12-18T08:28:43.260Z,26.33
2022-12-18T08:31:10.219Z,27.76
2022-12-18T08:33:38.240Z,25.17
2022-12-18T08:36:09.753Z,25.05
2022-12-18T08:38:37.339Z,26.79
2022-12-18T08:41:06.402Z,27.19
2022-12-18T08:43:33.238Z,26.91
2022-12-18T08:46:00.351Z,28.05
2022-12-18T08:48:29.866Z,27.81
2022-12-18T08:51:00.535Z,27.39
2022-12-18T08:53:30.352Z,27.99
2022-12-18T08:56:01.421Z,26.80
2022-12-18T08:58:28.501Z,26.30
2022-12-18T09:01:04.464Z,25.83
2022-12-18T09:03:42.955Z,26.21
2022-12-18T09:06:10.102Z,25.82
2022-12-18T09:08:39.972Z,25.70
2022-12-18T09:11:12.816Z,25.87
2022-12-18T09:13:43.004Z,26.70
2022-12-18T09:19:35.890Z,28.21
2022-12-18T09:22:02.776Z,27.73
2022-12-18T09:24:34.682Z,28.48
2022-12-18T09:27:08.553Z,28.65
2022-12-18T09:29:35.933Z,29.07
2022-12-18T09:32:03.478Z,28.80
2022-12-18T09:34:31.918Z,29.07
2022-12-18T09:36:58.936Z,28.88
2022-12-18T09:39:25.885Z,28.84
2022-12-18T09:41:59.131Z,27.98
2022-12-18T09:44:45.954Z,28.86
2022-12-18T09:47:21.697Z,28.57
2022-12-18T09:49:51.026Z,28.35
2022-12-18T09:52:34.248Z,28.54
2022-12-18T09:55:06.913Z,29.06
2022-12-18T09:57:35.353Z,29.22
2022-12-18T10:00:17.928Z,29.00
2022-12-18T10:02:51.348Z,30.03
2022-12-18T10:05:22.080Z,29.85
2022-12-18T10:08:25.164Z,28.90
2022-12-18T10:10:58.455Z,28.78
2022-12-18T10:13:44.136Z,29.29
2022-12-18T10:16:14.873Z,29.94
2022-12-18T10:19:26.172Z,29.98
2022-12-18T10:22:16.613Z,28.03
2022-12-18T10:24:48.230Z,28.74
2022-12-18T10:27:19.897Z,27.36
2022-12-18T10:29:50.327Z,27.89
2022-12-18T10:32:22.355Z,27.80
2022-12-18T10:34:52.950Z,28.83
2022-12-18T10:37:26.770Z,26.04
2022-12-18T10:40:10.157Z,25.64
2022-12-18T10:42:37.001Z,26.19
2022-12-18T10:52:02.136Z,28.58
2022-12-18T10:54:29.931Z,27.78
2022-12-18T10:57:34.006Z,28.06
2022-12-18T11:00:13.187Z,27.77
2022-12-18T11:02:41.214Z,28.49
2022-12-18T11:05:34.333Z,27.67
2022-12-18T11:08:37.650Z,27.06
2022-12-18T11:11:06.509Z,28.54
2022-12-18T11:13:33.233Z,29.41
2022-12-18T11:16:03.102Z,28.14
2022-12-18T11:18:35.550Z,27.85
2022-12-18T11:21:10.006Z,27.37
2022-12-18T11:23:37.235Z,27.55
2022-12-18T11:26:09.592Z,27.98
2022-12-18T11:29:20.753Z,28.42
2022-12-18T11:31:48.548Z,28.78
2022-12-18T11:34:31.028Z,29.43
2022-12-18T11:36:58.959Z,29.10
2022-12-18T11:39:47.551Z,28.27
2022-12-18T11:42:25.516Z,28.72
2022-12-18T11:45:09.470Z,28.64
2022-12-18T11:47:46.505Z,29.57
2022-12-18T11:50:27.617Z,29.28
2022-12-18T11:53:02.934Z,29.23
2022-12-18T11:55:47.683Z,28.54
2022-12-18T11:58:45.896Z,28.82
2022-12-18T12:01:44.398Z,29.02
2022-12-18T12:04:52.451Z,29.84
2022-12-18T12:07:42.059Z,29.61
2022-12-18T12:10:46.537Z,28.72
2022-12-18T12:13:37.022Z,28.24
2022-12-18T12:16:21.232Z,27.93
2022-12-18T12:19:57.143Z,28.10
2022-12-18T12:23:03.560Z,28.48
2022-12-18T12:25:40.710Z,28.67
2022-12-18T12:28:13.523Z,28.94
2022-12-18T12:30:50.785Z,29.38
2022-12-18T12:33:35.051Z,29.05
2022-12-18T12:36:05.914Z,28.61
2022-12-18T12:38:38.382Z,29.38
2022-12-18T12:41:10.921Z,28.58
2022-12-18T12:46:36.490Z,28.45
2022-12-18T12:49:03.989Z,28.59
2022-12-18T12:51:35.181Z,28.31
2022-12-18T12:54:03.892Z,28.20
2022-12-18T12:56:44.509Z,27.71
2022-12-18T12:59:23.838Z,28.64
2022-12-18T13:02:13.616Z,27.79
2022-12-18T13:04:53.178Z,28.07
2022-12-18T13:07:25.560Z,29.12
2022-12-18T13:10:19.097Z,28.82
2022-12-18T13:13:07.318Z,27.39
2022-12-18T13:13:43.212Z,28.50
2022-12-18T13:15:48.498Z,27.23
2022-12-18T13:18:24.867Z,27.68
2022-12-18T13:21:13.782Z,28.34
2022-12-18T13:23:41.101Z,27.34
2022-12-18T13:26:08.105Z,26.85
2022-12-18T13:28:34.887Z,26.53
2022-12-18T13:31:02.074Z,27.37
2022-12-18T13:33:34.976Z,26.90
2022-12-18T13:36:04.081Z,26.84
2022-12-18T13:38:37.533Z,26.04
2022-12-18T13:41:38.154Z,26.16
2022-12-18T13:44:23.578Z,27.89
2022-12-18T13:46:51.195Z,27.84
2022-12-18T13:49:25.769Z,26.90
2022-12-18T13:51:57.278Z,26.68
2022-12-18T13:54:43.347Z,27.70
2022-12-18T13:57:33.429Z,27.55
2022-12-18T14:00:21.430Z,27.68
2022-12-18T14:02:48.327Z,28.12
2022-12-18T14:05:24.823Z,27.96
2022-12-18T14:08:27.539Z,27.44
2022-12-18T14:10:54.220Z,27.95
2022-12-18T14:13:38.424Z,28.53
2022-12-18T14:16:07.214Z,28.93
2022-12-18T14:18:45.466Z,28.46
2022-12-18T14:21:30.853Z,28.76
2022-12-18T14:24:04.721Z,29.53
2022-12-18T14:26:32.532Z,29.08
2022-12-18T14:29:00.661Z,29.19
2022-12-18T14:31:28.691Z,28.90
2022-12-18T14:33:55.579Z,29.50
2022-12-18T14:36:25.542Z,28.96
2022-12-18T14:42:39.979Z,29.00
2022-12-18T14:45:41.394Z,29.33
2022-12-18T14:48:18.240Z,28.47
2022-12-18T14:50:58.628Z,29.32
2022-12-18T14:53:35.290Z,27.56
2022-12-18T14:56:02.629Z,30.89
2022-12-18T14:58:29.485Z,30.09
2022-12-18T15:00:56.295Z,29.61
2022-12-18T15:03:23.641Z,28.27
2022-12-18T15:05:51.816Z,29.63
2022-12-18T15:08:35.165Z,28.89
2022-12-18T15:11:26.031Z,28.70
2022-12-18T15:13:53.318Z,28.45
2022-12-18T15:16:20.157Z,28.59
2022-12-18T15:18:46.949Z,29.25
2022-12-18T15:21:18.246Z,29.18
2022-12-18T15:23:45.221Z,29.36
2022-12-18T15:26:16.361Z,30.02
2022-12-18T15:28:47.597Z,30.84
2022-12-18T15:31:14.214Z,30.06
2022-12-18T15:33:45.447Z,29.94
2022-12-18T15:36:14.115Z,29.26
2022-12-18T15:38:40.872Z,29.79
2022-12-18T15:41:14.385Z,29.67
2022-12-18T15:43:41.731Z,29.40
2022-12-18T15:46:18.782Z,30.04
2022-12-18T15:48:57.983Z,29.24
2022-12-18T15:51:36.581Z,30.94
2022-12-18T15:54:05.968Z,30.05
2022-12-18T15:56:32.898Z,30.54
2022-12-18T15:59:01.615Z,30.01
2022-12-18T16:01:30.306Z,28.89
2022-12-18T16:03:57.780Z,28.97
2022-12-18T16:06:25.073Z,29.50
2022-12-18T16:08:54.469Z,28.49
2022-12-18T16:11:29.753Z,30.33
2022-12-18T16:13:56.877Z,30.60
2022-12-18T16:16:26.103Z,30.76
2022-12-18T16:18:54.008Z,29.64
2022-12-18T16:21:22.254Z,31.04
2022-12-18T16:23:49.989Z,37.51
2022-12-18T16:26:17.124Z,32.64
2022-12-18T16:28:48.615Z,33.23
2022-12-18T16:31:15.801Z,33.43
2022-12-18T16:33:44.421Z,33.37
2022-12-18T16:36:12.004Z,32.68
2022-12-18T16:38:39.074Z,33.72
2022-12-18T16:41:21.158Z,34.29
2022-12-18T16:43:54.449Z,33.69
2022-12-18T16:46:22.006Z,33.71
2022-12-18T16:48:49.118Z,32.16
2022-12-18T16:51:16.834Z,31.82
2022-12-18T16:53:45.167Z,32.67
2022-12-18T16:56:12.349Z,32.70
2022-12-18T16:58:39.059Z,31.42
2022-12-18T17:01:09.339Z,31.32
2022-12-18T17:03:36.963Z,31.87
2022-12-18T17:06:07.550Z,31.52
2022-12-18T17:08:35.226Z,32.23
2022-12-18T17:11:07.508Z,32.69
2022-12-18T17:13:34.420Z,31.90
2022-12-18T17:16:05.385Z,33.09
2022-12-18T17:18:33.529Z,34.81
2022-12-18T17:21:01.616Z,34.44
2022-12-18T17:23:28.969Z,38.14
2022-12-18T17:25:57.622Z,37.35
2022-12-18T17:28:25.899Z,34.63
2022-12-18T17:30:53.660Z,32.83
2022-12-18T17:33:41.127Z,32.59
2022-12-18T17:36:08.530Z,35.23
2022-12-18T17:38:35.627Z,34.94
2022-12-18T17:41:09.443Z,34.43
2022-12-18T17:43:36.600Z,35.41
2022-12-18T17:46:03.714Z,34.44
2022-12-18T17:48:31.131Z,34.48
2022-12-18T17:51:02.086Z,38.65
2022-12-18T17:53:29.071Z,35.11
2022-12-18T17:55:59.081Z,35.09
2022-12-18T17:58:40.600Z,34.79
2022-12-18T18:01:07.784Z,35.35
2022-12-18T18:03:37.018Z,37.81
2022-12-18T18:06:04.062Z,41.24
2022-12-18T18:08:30.870Z,44.93
2022-12-18T18:10:58.193Z,39.22
2022-12-18T18:13:27.936Z,38.11
2022-12-18T18:15:57.798Z,38.10
2022-12-18T18:18:24.874Z,36.31
2022-12-18T18:20:51.718Z,36.75
2022-12-18T18:23:21.177Z,38.04
2022-12-18T18:25:54.278Z,44.38
2022-12-18T18:28:22.603Z,53.51
2022-12-18T18:30:49.533Z,37.76
2022-12-18T18:33:16.727Z,36.55
2022-12-18T18:35:59.122Z,35.38
2022-12-18T18:38:26.174Z,34.08
2022-12-18T18:41:02.724Z,35.66
2022-12-18T18:43:29.474Z,34.54
2022-12-18T18:46:00.126Z,34.33
2022-12-18T18:48:42.394Z,35.86
2022-12-18T18:51:21.341Z,36.00
2022-12-18T18:53:49.448Z,34.20
2022-12-18T18:56:56.428Z,33.82
2022-12-18T18:59:05.724Z,35.22
2022-12-18T19:01:33.052Z,34.88
2022-12-18T19:04:03.259Z,35.15
2022-12-18T19:06:33.353Z,36.14
2022-12-18T19:09:01.813Z,36.13
2022-12-18T19:11:33.174Z,37.57
2022-12-18T19:14:07.193Z,35.99
2022-12-18T19:16:35.563Z,35.91
2022-12-18T19:19:07.931Z,37.04
2022-12-18T19:21:39.101Z,35.86
2022-12-18T19:24:07.105Z,35.37
2022-12-18T19:26:34.384Z,35.86
2022-12-18T19:29:02.732Z,35.91
2022-12-18T19:31:35.697Z,37.20
2022-12-18T19:34:04.028Z,37.25
2022-12-18T19:36:31.388Z,36.70
2022-12-18T19:38:59.676Z,36.60
2022-12-18T19:41:29.158Z,39.18
2022-12-18T19:43:59.087Z,42.27
2022-12-18T19:46:25.865Z,45.39
2022-12-18T19:48:53.730Z,39.85
2022-12-18T19:51:28.468Z,37.68
2022-12-18T19:53:58.923Z,37.31
2022-12-18T19:56:32.917Z,36.33
2022-12-18T19:59:01.527Z,35.97
2022-12-18T20:01:29.248Z,36.02
2022-12-18T20:03:58.868Z,34.93
2022-12-18T20:06:34.248Z,34.25
2022-12-18T20:09:05.556Z,33.02
2022-12-18T20:11:33.077Z,33.74
2022-12-18T20:14:00.141Z,34.30
2022-12-18T20:16:28.462Z,31.93
2022-12-18T20:18:57.477Z,31.34
2022-12-18T20:21:24.702Z,30.31
2022-12-18T20:23:52.418Z,29.40
2022-12-18T20:26:20.017Z,29.53
2022-12-18T20:28:47.008Z,29.73
2022-12-18T20:31:14.313Z,28.99
2022-12-18T20:33:42.254Z,27.35
2022-12-18T20:36:12.728Z,27.94
2022-12-18T20:38:41.038Z,27.25
2022-12-18T20:41:13.631Z,26.37
2022-12-18T20:43:41.141Z,25.82
2022-12-18T20:46:12.339Z,25.79
2022-12-18T20:49:29.455Z,25.64
2022-12-18T20:52:02.433Z,25.06
2022-12-18T20:54:30.424Z,24.89
2022-12-18T20:56:57.721Z,24.26
2022-12-18T20:59:26.265Z,24.62
2022-12-18T21:02:02.253Z,24.87
2022-12-18T21:04:29.388Z,24.65
2022-12-18T21:07:02.333Z,23.97
2022-12-18T21:09:37.605Z,24.33
2022-12-18T21:12:13.946Z,23.58
2022-12-18T21:14:46.377Z,22.78
2022-12-18T21:17:15.829Z,22.25
2022-12-18T21:19:43.292Z,23.21
2022-12-18T21:22:13.510Z,24.41
2022-12-18T21:24:40.646Z,23.28
2022-12-18T21:27:07.562Z,23.52
2022-12-18T21:29:34.547Z,23.31
2022-12-18T21:32:02.578Z,22.14
2022-12-18T21:34:32.546Z,22.13
2022-12-18T21:37:00.495Z,22.83
2022-12-18T21:39:29.970Z,21.91
2022-12-18T21:41:57.430Z,21.57
2022-12-18T21:44:24.675Z,23.21
2022-12-18T21:47:04.546Z,23.69
2022-12-18T21:49:41.596Z,22.72
2022-12-18T21:52:10.701Z,22.21
2022-12-18T21:54:37.702Z,20.90
2022-12-18T21:57:07.700Z,21.46
2022-12-18T21:59:39.013Z,21.22
2022-12-18T22:02:26.360Z,24.46
2022-12-18T22:04:54.007Z,20.53
2022-12-18T22:07:30.257Z,20.77
2022-12-18T22:09:57.755Z,21.59
2022-12-18T22:12:29.148Z,20.35
2022-12-18T22:14:56.358Z,20.17
2022-12-18T22:17:23.973Z,20.69
2022-12-18T22:19:53.778Z,21.21
2022-12-18T22:22:20.882Z,21.34
2022-12-18T22:24:53.312Z,20.96
2022-12-18T22:27:25.036Z,19.72
2022-12-18T22:29:51.748Z,19.72
2022-12-18T22:32:24.866Z,19.91
2022-12-18T22:35:07.287Z,20.13
2022-12-18T22:37:38.727Z,21.00
2022-12-18T22:40:07.523Z,21.56
2022-12-18T22:42:51.334Z,21.56
2022-12-18T22:45:19.768Z,22.02
2022-12-18T22:47:46.634Z,20.73
2022-12-18T22:50:14.267Z,21.14
2022-12-18T22:52:41.013Z,21.10
2022-12-18T22:55:09.671Z,20.15
2022-12-18T22:57:36.700Z,20.33
2022-12-18T23:00:05.535Z,20.72
2022-12-18T23:02:33.366Z,20.60
2022-12-18T23:05:00.283Z,19.88
2022-12-18T23:07:38.435Z,20.23
2022-12-18T23:10:06.698Z,19.94
2022-12-18T23:12:33.638Z,19.36
2022-12-18T23:15:03.911Z,18.56
2022-12-18T23:17:30.881Z,18.61
2022-12-18T23:19:58.258Z,18.85
2022-12-18T23:22:25.940Z,19.07
2022-12-18T23:24:52.963Z,18.51
2022-12-18T23:27:21.055Z,18.70
2022-12-18T23:29:48.626Z,19.62
2022-12-18T23:32:16.069Z,19.42
2022-12-18T23:34:43.218Z,21.10
2022-12-18T23:37:10.448Z,19.59
2022-12-18T23:39:37.179Z,19.37
2022-12-18T23:42:04.558Z,19.50
2022-12-18T23:44:32.995Z,18.95
2022-12-18T23:46:59.899Z,19.12
2022-12-18T23:49:27.017Z,18.53
2022-12-18T23:51:54.450Z,18.06
2022-12-18T23:54:25.595Z,17.84
2022-12-18T23:57:00.551Z,20.10
2022-12-18T23:59:29.724Z,21.18
